Time;durP1;ratioP1;P1;durP2;ratioP2;P2;SDS_P1;SDS_P2;PMS_P1;PMS_P2;Temp;Humidity;BMP_temperature;BMP_pressure;BME280_temperature;BME280_humidity;BME280_pressure;Samples;Min_cycle;Max_cycle;Signal;HPM_P1;HPM_P2
2023/07/29 00:01:03;;;;;;;3.63;1.77;;;;;;;;;;5093021;28;20094;-60
2023/07/29 00:03:32;;;;;;;3.28;1.30;;;;;;;;;;5088978;28;20075;-58
2023/07/29 00:06:00;;;;;;;2.80;1.65;;;;;;;;;;5088918;28;20047;-58
2023/07/29 00:08:29;;;;;;;3.55;1.80;;;;;;;;;;5094405;28;20109;-57
2023/07/29 00:10:57;;;;;;;2.42;1.60;;;;;;;;;;5086804;28;20105;-61
2023/07/29 00:13:28;;;;;;;5.60;2.03;;;;;;;;;;5093502;28;20059;-59
2023/07/29 00:15:57;;;;;;;4.22;2.05;;;;;;;;;;5087990;28;20052;-58
2023/07/29 00:18:25;;;;;;;2.97;1.60;;;;;;;;;;5084549;28;20459;-58
2023/07/29 00:20:54;;;;;;;3.72;2.00;;;;;;;;;;5089861;28;20124;-58
2023/07/29 00:23:22;;;;;;;1.95;1.27;;;;;;;;;;5081873;28;20444;-59
2023/07/29 00:25:50;;;;;;;4.53;1.60;;;;;;;;;;5092574;28;20040;-58
2023/07/29 00:28:19;;;;;;;3.30;1.60;;;;;;;;;;5093469;28;20097;-59
2023/07/29 00:30:52;;;;;;;2.85;1.63;;;;;;;;;;5090747;28;20550;-59
2023/07/29 00:33:20;;;;;;;3.33;1.75;;;;;;;;;;5089027;28;20036;-62
2023/07/29 00:35:49;;;;;;;3.35;1.17;;;;;;;;;;5091298;28;20082;-59
2023/07/29 00:38:17;;;;;;;2.35;1.35;;;;;;;;;;5090323;28;20055;-60
2023/07/29 00:40:45;;;;;;;2.65;1.50;;;;;;;;;;5082975;28;20125;-59
2023/07/29 00:43:14;;;;;;;5.95;1.63;;;;;;;;;;5090119;28;20072;-59
2023/07/29 00:45:44;;;;;;;4.22;1.73;;;;;;;;;;5093055;28;20501;-59
2023/07/29 00:48:14;;;;;;;3.83;1.67;;;;;;;;;;5089567;28;20064;-59
2023/07/29 00:50:42;;;;;;;3.20;1.70;;;;;;;;;;5087026;28;20046;-60
2023/07/29 00:53:11;;;;;;;2.78;1.73;;;;;;;;;;5084397;28;20570;-58
2023/07/29 00:55:39;;;;;;;2.70;1.75;;;;;;;;;;5081594;28;20195;-60
2023/07/29 00:58:07;;;;;;;3.75;1.77;;;;;;;;;;5091111;28;20056;-61
2023/07/29 01:00:36;;;;;;;3.67;1.60;;;;;;;;;;5089116;28;20149;-61
2023/07/29 01:03:05;;;;;;;3.05;1.70;;;;;;;;;;5108343;23;20048;-57
2023/07/29 01:05:41;;;;;;;5.43;2.08;;;;;;;;;;5080567;28;20047;-57
2023/07/29 01:08:14;;;;;;;3.95;1.88;;;;;;;;;;5083272;28;20364;-56
2023/07/29 01:10:47;;;;;;;3.22;1.70;;;;;;;;;;5080660;28;20097;-58
2023/07/29 01:13:20;;;;;;;3.10;1.50;;;;;;;;;;5086724;28;20141;-59
2023/07/29 01:15:52;;;;;;;3.00;1.60;;;;;;;;;;5082272;28;20125;-57
2023/07/29 01:18:22;;;;;;;3.78;1.92;;;;;;;;;;5085290;28;20040;-58
2023/07/29 01:20:54;;;;;;;2.58;1.40;;;;;;;;;;5083634;28;20040;-57
2023/07/29 01:23:27;;;;;;;2.75;1.63;;;;;;;;;;5085415;28;20079;-58
2023/07/29 01:25:55;;;;;;;4.55;1.55;;;;;;;;;;5078851;28;20045;-56
2023/07/29 01:28:24;;;;;;;3.00;1.30;;;;;;;;;;5083075;28;20475;-58
2023/07/29 01:30:56;;;;;;;4.45;1.80;;;;;;;;;;5073847;28;20044;-56
2023/07/29 01:33:27;;;;;;;3.42;1.90;;;;;;;;;;5073607;28;20550;-56
2023/07/29 01:35:58;;;;;;;2.88;1.42;;;;;;;;;;5057963;28;20069;-58
2023/07/29 01:38:33;;;;;;;3.80;1.67;;;;;;;;;;5048694;28;20065;-60
2023/07/29 01:41:02;;;;;;;3.20;1.50;;;;;;;;;;5056202;28;20049;-61
2023/07/29 01:43:32;;;;;;;2.83;1.63;;;;;;;;;;5059248;28;20053;-60
2023/07/29 01:46:01;;;;;;;3.30;1.52;;;;;;;;;;5056858;28;20042;-61
2023/07/29 01:48:31;;;;;;;4.47;1.50;;;;;;;;;;5091363;22;20069;-84
2023/07/29 01:51:00;;;;;;;4.85;1.70;;;;;;;;;;5059194;28;20510;-84
2023/07/29 01:53:28;;;;;;;3.38;1.88;;;;;;;;;;5058463;28;20080;-84
2023/07/29 01:55:58;;;;;;;4.18;1.67;;;;;;;;;;5062560;28;20053;-83
2023/07/29 01:58:26;;;;;;;2.00;1.30;;;;;;;;;;5061689;28;20080;-84
2023/07/29 02:00:55;;;;;;;3.10;1.67;;;;;;;;;;5062900;28;20071;-84
2023/07/29 02:03:23;;;;;;;3.88;1.30;;;;;;;;;;5062966;28;20090;-84
2023/07/29 02:05:52;;;;;;;4.65;1.90;;;;;;;;;;5060357;28;20052;-84
2023/07/29 02:08:20;;;;;;;3.67;1.92;;;;;;;;;;5062385;28;20106;-84
2023/07/29 02:10:48;;;;;;;2.75;1.45;;;;;;;;;;5066218;28;20045;-84
2023/07/29 02:13:18;;;;;;;3.25;1.85;;;;;;;;;;5055838;28;20062;-84
2023/07/29 02:15:47;;;;;;;4.63;1.60;;;;;;;;;;5061266;28;20088;-83
2023/07/29 02:18:15;;;;;;;2.72;1.58;;;;;;;;;;5063665;28;20488;-83
2023/07/29 02:20:49;;;;;;;3.60;1.70;;;;;;;;;;5056761;28;20041;-84
2023/07/29 02:23:17;;;;;;;2.55;1.48;;;;;;;;;;5065082;28;20052;-83
2023/07/29 02:25:46;;;;;;;3.75;1.40;;;;;;;;;;5059366;28;20057;-84
2023/07/29 02:28:14;;;;;;;4.63;1.48;;;;;;;;;;5056792;28;20048;-84
2023/07/29 02:30:45;;;;;;;2.10;1.42;;;;;;;;;;5064079;28;20044;-83
2023/07/29 02:33:13;;;;;;;3.05;1.63;;;;;;;;;;5059028;28;20041;-84
2023/07/29 02:35:42;;;;;;;3.20;1.33;;;;;;;;;;5057328;28;20128;-83
2023/07/29 02:38:10;;;;;;;2.75;1.58;;;;;;;;;;5060164;28;20044;-84
2023/07/29 02:40:39;;;;;;;2.13;1.30;;;;;;;;;;5053490;28;20076;-83
2023/07/29 02:43:08;;;;;;;1.75;1.30;;;;;;;;;;5048503;28;20057;-84
2023/07/29 02:45:36;;;;;;;4.53;1.70;;;;;;;;;;5030217;28;20081;-84
2023/07/29 02:48:06;;;;;;;3.25;1.52;;;;;;;;;;5029671;28;20045;-84
2023/07/29 02:50:36;;;;;;;3.45;1.63;;;;;;;;;;5024809;28;20045;-84
2023/07/29 02:53:04;;;;;;;3.90;1.63;;;;;;;;;;5027134;28;20041;-86
2023/07/29 02:55:32;;;;;;;2.65;1.77;;;;;;;;;;5021448;28;20469;-85
2023/07/29 02:58:01;;;;;;;6.45;1.67;;;;;;;;;;5021159;28;20081;-84
2023/07/29 03:00:32;;;;;;;2.90;1.52;;;;;;;;;;5019506;28;20103;-85
2023/07/29 03:03:01;;;;;;;2.97;1.52;;;;;;;;;;5026056;28;20516;-85
2023/07/29 03:05:31;;;;;;;2.97;1.52;;;;;;;;;;5053206;28;20055;-84
2023/07/29 03:07:59;;;;;;;1.95;1.40;;;;;;;;;;5062923;28;20090;-85
2023/07/29 03:10:28;;;;;;;2.78;1.27;;;;;;;;;;5068662;28;20048;-84
2023/07/29 03:12:56;;;;;;;2.38;1.60;;;;;;;;;;5064414;28;20052;-85
2023/07/29 03:15:25;;;;;;;2.42;1.42;;;;;;;;;;5068247;28;20052;-85
2023/07/29 03:17:54;;;;;;;8.77;1.80;;;;;;;;;;5073848;28;20045;-84
2023/07/29 03:20:22;;;;;;;3.10;1.50;;;;;;;;;;5067722;28;20048;-85
2023/07/29 03:22:52;;;;;;;5.75;1.60;;;;;;;;;;5063763;28;20045;-85
2023/07/29 03:25:20;;;;;;;2.42;1.27;;;;;;;;;;5069359;28;20044;-85
2023/07/29 03:27:50;;;;;;;4.47;1.20;;;;;;;;;;5066537;28;20040;-85
2023/07/29 03:30:21;;;;;;;2.50;1.38;;;;;;;;;;5065735;28;20282;-85
2023/07/29 03:32:50;;;;;;;2.97;1.40;;;;;;;;;;5070355;28;20483;-85
2023/07/29 03:35:19;;;;;;;2.15;1.30;;;;;;;;;;5069215;28;20060;-85
2023/07/29 03:37:47;;;;;;;2.50;1.50;;;;;;;;;;5067050;28;20060;-86
2023/07/29 03:40:18;;;;;;;4.90;1.40;;;;;;;;;;5066400;28;20040;-86
2023/07/29 03:42:46;;;;;;;1.92;1.20;;;;;;;;;;5064188;28;20075;-85
2023/07/29 03:45:15;;;;;;;2.03;1.10;;;;;;;;;;5069785;28;20041;-85
2023/07/29 03:47:43;;;;;;;2.35;1.38;;;;;;;;;;5069393;28;20059;-85
2023/07/29 03:50:12;;;;;;;3.42;1.58;;;;;;;;;;5067792;28;20492;-85
2023/07/29 03:52:40;;;;;;;2.20;1.20;;;;;;;;;;5068591;28;20771;-85
2023/07/29 03:55:09;;;;;;;2.70;1.50;;;;;;;;;;5067325;28;20053;-85
2023/07/29 03:57:38;;;;;;;4.03;1.60;;;;;;;;;;5063494;28;20118;-85
2023/07/29 04:00:08;;;;;;;6.00;1.70;;;;;;;;;;5067192;28;20047;-86
2023/07/29 04:02:38;;;;;;;3.63;1.63;;;;;;;;;;5065975;28;20053;-86
2023/07/29 04:05:08;;;;;;;2.97;1.60;;;;;;;;;;5065789;28;20048;-86
2023/07/29 04:07:36;;;;;;;2.92;1.67;;;;;;;;;;5058697;28;20059;-86
2023/07/29 04:10:06;;;;;;;4.30;1.90;;;;;;;;;;5061373;28;20052;-87
2023/07/29 04:12:34;;;;;;;2.90;1.58;;;;;;;;;;5065362;28;20048;-86
2023/07/29 04:15:04;;;;;;;3.22;1.60;;;;;;;;;;5064097;28;20105;-86
2023/07/29 04:17:32;;;;;;;3.25;1.70;;;;;;;;;;5063935;28;20045;-86
2023/07/29 04:20:01;;;;;;;2.50;1.33;;;;;;;;;;5066891;28;20041;-86
2023/07/29 04:22:29;;;;;;;3.35;1.70;;;;;;;;;;5067082;28;20056;-86
2023/07/29 04:24:58;;;;;;;3.90;1.60;;;;;;;;;;5059968;28;20073;-87
2023/07/29 04:27:26;;;;;;;2.35;1.60;;;;;;;;;;5059496;28;20099;-86
2023/07/29 04:29:54;;;;;;;5.10;1.33;;;;;;;;;;5063110;28;20075;-86
2023/07/29 04:32:25;;;;;;;2.58;1.60;;;;;;;;;;5065741;28;20120;-86
2023/07/29 04:34:54;;;;;;;4.30;1.40;;;;;;;;;;5061062;28;20045;-85
2023/07/29 04:37:22;;;;;;;3.33;1.52;;;;;;;;;;5066182;28;20114;-85
2023/07/29 04:39:51;;;;;;;2.83;1.40;;;;;;;;;;5067457;28;20049;-85
2023/07/29 04:42:19;;;;;;;2.28;1.45;;;;;;;;;;5059290;28;20084;-86
2023/07/29 04:44:47;;;;;;;4.32;1.08;;;;;;;;;;5066444;28;20137;-86
2023/07/29 04:47:16;;;;;;;2.45;1.33;;;;;;;;;;5063642;28;20048;-86
2023/07/29 04:49:46;;;;;;;3.10;1.33;;;;;;;;;;5065640;28;20068;-86
2023/07/29 04:52:14;;;;;;;3.47;1.30;;;;;;;;;;5057423;28;20079;-86
2023/07/29 04:54:43;;;;;;;2.53;1.45;;;;;;;;;;5065261;28;20066;-86
2023/07/29 04:57:11;;;;;;;3.08;1.55;;;;;;;;;;5064809;28;20073;-88
2023/07/29 04:59:40;;;;;;;4.40;1.58;;;;;;;;;;5065857;28;20050;-86
2023/07/29 05:02:08;;;;;;;2.45;1.50;;;;;;;;;;5065047;28;20471;-86
2023/07/29 05:04:36;;;;;;;3.33;1.50;;;;;;;;;;5055931;28;20454;-86
2023/07/29 05:07:07;;;;;;;2.15;1.20;;;;;;;;;;5067916;28;20577;-86
2023/07/29 05:09:35;;;;;;;3.63;1.40;;;;;;;;;;5067416;28;20056;-85
2023/07/29 05:12:04;;;;;;;7.22;1.42;;;;;;;;;;5060898;28;20047;-87
2023/07/29 05:14:32;;;;;;;2.78;1.45;;;;;;;;;;5063619;28;20492;-89
2023/07/29 05:17:01;;;;;;;2.78;1.42;;;;;;;;;;5065344;28;20048;-87
2023/07/29 05:19:29;;;;;;;2.10;1.40;;;;;;;;;;5065361;28;20114;-86
2023/07/29 05:21:57;;;;;;;2.92;1.60;;;;;;;;;;5060081;28;20041;-86
2023/07/29 05:24:27;;;;;;;1.95;1.40;;;;;;;;;;5065743;28;20067;-86
2023/07/29 05:26:56;;;;;;;1.92;1.30;;;;;;;;;;5064269;28;20591;-91
2023/07/29 05:29:24;;;;;;;2.00;1.20;;;;;;;;;;5063561;28;20040;-88
2023/07/29 05:31:53;;;;;;;4.53;1.33;;;;;;;;;;5064330;28;20053;-87
2023/07/29 05:34:21;;;;;;;2.60;1.70;;;;;;;;;;5066998;28;20129;-87
2023/07/29 05:36:50;;;;;;;2.33;1.17;;;;;;;;;;5063675;28;20044;-87
2023/07/29 05:39:18;;;;;;;3.42;1.40;;;;;;;;;;5062235;28;20576;-88
2023/07/29 05:41:48;;;;;;;1.45;1.20;;;;;;;;;;5064712;28;20079;-87
2023/07/29 05:44:16;;;;;;;2.90;1.25;;;;;;;;;;5061917;28;20127;-88
2023/07/29 05:46:44;;;;;;;2.72;1.60;;;;;;;;;;5064172;28;20075;-87
2023/07/29 05:49:13;;;;;;;2.75;1.35;;;;;;;;;;5061119;28;20106;-87
2023/07/29 05:51:41;;;;;;;2.70;1.15;;;;;;;;;;5061084;28;20130;-88
2023/07/29 05:54:10;;;;;;;3.80;1.40;;;;;;;;;;5061387;28;20577;-86
2023/07/29 05:56:38;;;;;;;2.53;1.40;;;;;;;;;;5061785;28;20397;-86
2023/07/29 05:59:08;;;;;;;1.95;1.25;;;;;;;;;;5063387;28;20665;-86
2023/07/29 06:01:36;;;;;;;2.13;1.20;;;;;;;;;;5054433;28;20048;-87
2023/07/29 06:04:05;;;;;;;2.35;1.05;;;;;;;;;;5061063;28;20522;-87
2023/07/29 06:06:33;;;;;;;2.42;1.58;;;;;;;;;;5061741;28;20044;-86
2023/07/29 06:09:02;;;;;;;2.85;1.05;;;;;;;;;;5059732;28;20052;-87
2023/07/29 06:11:31;;;;;;;2.70;1.02;;;;;;;;;;5057086;28;20083;-88
2023/07/29 06:13:59;;;;;;;2.13;1.33;;;;;;;;;;5057060;28;20637;-90
2023/07/29 06:16:29;;;;;;;3.25;1.40;;;;;;;;;;5059445;28;20117;-92
2023/07/29 06:18:58;;;;;;;3.25;1.27;;;;;;;;;;5062394;28;20044;-91
2023/07/29 06:21:27;;;;;;;4.35;1.48;;;;;;;;;;5056696;28;20048;-90
2023/07/29 06:23:55;;;;;;;4.00;1.23;;;;;;;;;;5057318;28;20072;-89
2023/07/29 06:26:23;;;;;;;2.85;1.40;;;;;;;;;;5056990;28;20574;-89
2023/07/29 06:28:52;;;;;;;2.47;1.27;;;;;;;;;;5062002;28;20140;-89
2023/07/29 06:31:20;;;;;;;2.42;1.13;;;;;;;;;;5057160;28;20048;-88
2023/07/29 06:33:50;;;;;;;2.90;1.27;;;;;;;;;;5058884;28;20514;-87
2023/07/29 06:36:18;;;;;;;1.92;0.98;;;;;;;;;;5055779;28;20051;-88
2023/07/29 06:38:47;;;;;;;2.60;1.40;;;;;;;;;;5054506;28;20144;-88
2023/07/29 06:41:16;;;;;;;3.30;1.50;;;;;;;;;;5054467;28;20067;-88
2023/07/29 06:43:47;;;;;;;2.10;1.27;;;;;;;;;;5060916;28;20139;-88
2023/07/29 06:46:16;;;;;;;2.35;1.25;;;;;;;;;;5060819;28;20048;-90
2023/07/29 06:48:44;;;;;;;1.80;1.17;;;;;;;;;;5054765;28;20246;-89
2023/07/29 06:51:14;;;;;;;3.60;1.20;;;;;;;;;;5059848;28;20056;-89
2023/07/29 06:53:42;;;;;;;3.92;1.10;;;;;;;;;;5055122;28;20142;-87
2023/07/29 06:56:11;;;;;;;3.67;1.67;;;;;;;;;;5061028;28;20049;-87
2023/07/29 06:58:39;;;;;;;2.83;1.10;;;;;;;;;;5056778;28;20055;-87
2023/07/29 07:01:08;;;;;;;2.30;1.30;;;;;;;;;;5058424;28;20497;-87
2023/07/29 07:03:36;;;;;;;3.08;1.60;;;;;;;;;;5059194;28;20592;-86
2023/07/29 07:06:05;;;;;;;2.70;1.20;;;;;;;;;;5055559;28;20057;-90
2023/07/29 07:08:35;;;;;;;5.90;1.50;;;;;;;;;;5057394;28;20106;-88
2023/07/29 07:11:03;;;;;;;4.18;1.20;;;;;;;;;;5057731;28;20459;-89
2023/07/29 07:13:32;;;;;;;2.72;1.40;;;;;;;;;;5055260;28;20460;-90
2023/07/29 07:16:00;;;;;;;4.43;1.77;;;;;;;;;;5056890;28;20045;-88
2023/07/29 07:18:29;;;;;;;3.50;1.33;;;;;;;;;;5055616;28;20053;-88
2023/07/29 07:20:57;;;;;;;3.72;1.55;;;;;;;;;;5059895;28;20072;-88
2023/07/29 07:23:25;;;;;;;2.53;1.50;;;;;;;;;;5060187;28;20449;-88
2023/07/29 07:25:55;;;;;;;3.15;1.70;;;;;;;;;;5053625;28;21546;-87
2023/07/29 07:28:23;;;;;;;3.13;1.63;;;;;;;;;;5053606;28;20076;-87
2023/07/29 07:30:55;;;;;;;3.08;1.60;;;;;;;;;;5058666;28;20044;-88
2023/07/29 07:33:24;;;;;;;4.40;1.40;;;;;;;;;;5059979;28;20036;-89
2023/07/29 07:35:52;;;;;;;2.35;1.42;;;;;;;;;;5058397;28;20091;-91
2023/07/29 07:38:20;;;;;;;2.50;1.45;;;;;;;;;;5056961;28;20794;-89
2023/07/29 07:40:55;;;;;;;3.17;1.65;;;;;;;;;;5059055;28;20469;-91
2023/07/29 07:43:24;;;;;;;3.30;1.20;;;;;;;;;;5057942;28;20057;-89
2023/07/29 07:45:53;;;;;;;5.13;1.80;;;;;;;;;;5060029;28;20048;-90
2023/07/29 07:48:21;;;;;;;5.03;2.20;;;;;;;;;;5061772;28;20056;-90
2023/07/29 07:50:49;;;;;;;3.13;1.73;;;;;;;;;;5059798;28;20044;-89
2023/07/29 07:53:19;;;;;;;3.40;1.30;;;;;;;;;;5061336;28;20044;-87
2023/07/29 07:55:48;;;;;;;3.55;1.55;;;;;;;;;;5057964;28;20052;-88
2023/07/29 07:58:18;;;;;;;3.22;1.42;;;;;;;;;;5059632;28;20068;-88
2023/07/29 08:00:46;;;;;;;4.35;1.70;;;;;;;;;;5057526;28;20136;-88
2023/07/29 08:03:14;;;;;;;4.05;1.50;;;;;;;;;;5057151;28;20099;-87
2023/07/29 08:05:43;;;;;;;3.20;1.80;;;;;;;;;;5064960;28;20036;-88
2023/07/29 08:08:12;;;;;;;2.38;1.50;;;;;;;;;;5064562;28;20109;-88
2023/07/29 08:10:40;;;;;;;6.55;1.80;;;;;;;;;;5058077;28;20171;-88
2023/07/29 08:13:08;;;;;;;5.05;1.73;;;;;;;;;;5064071;28;20456;-89
2023/07/29 08:15:38;;;;;;;3.60;1.63;;;;;;;;;;5065187;28;20040;-87
2023/07/29 08:18:06;;;;;;;4.82;1.90;;;;;;;;;;5060073;28;20416;-88
2023/07/29 08:20:35;;;;;;;4.30;1.92;;;;;;;;;;5065033;28;20072;-90
2023/07/29 08:23:04;;;;;;;4.28;1.95;;;;;;;;;;5065432;28;20091;-88
2023/07/29 08:25:32;;;;;;;4.35;2.30;;;;;;;;;;5061740;28;20500;-87
2023/07/29 08:28:00;;;;;;;3.92;2.10;;;;;;;;;;5062978;28;20052;-88
2023/07/29 08:30:29;;;;;;;8.27;2.15;;;;;;;;;;5062388;28;20097;-89
2023/07/29 08:32:58;;;;;;;2.72;1.70;;;;;;;;;;5067278;28;20559;-86
2023/07/29 08:35:27;;;;;;;6.30;2.53;;;;;;;;;;5067456;28;20056;-90
2023/07/29 08:37:55;;;;;;;3.70;2.15;;;;;;;;;;5065442;28;20033;-90
2023/07/29 08:40:26;;;;;;;3.42;2.03;;;;;;;;;;5065068;28;20060;-94
2023/07/29 08:42:56;;;;;;;6.88;2.00;;;;;;;;;;5066015;28;20063;-88
2023/07/29 08:45:25;;;;;;;6.80;1.95;;;;;;;;;;5064849;28;20433;-85
2023/07/29 08:47:55;;;;;;;5.45;2.15;;;;;;;;;;5066163;28;20084;-86
2023/07/29 08:50:26;;;;;;;5.35;2.88;;;;;;;;;;5067189;28;20045;-87
2023/07/29 08:52:54;;;;;;;8.40;2.25;;;;;;;;;;5062612;28;20126;-87
2023/07/29 08:55:23;;;;;;;4.38;2.53;;;;;;;;;;5058948;28;20053;-86
2023/07/29 08:57:51;;;;;;;5.10;2.55;;;;;;;;;;5063300;28;20574;-86
2023/07/29 09:00:20;;;;;;;3.65;2.20;;;;;;;;;;5062924;28;20072;-86
2023/07/29 09:02:49;;;;;;;5.85;2.28;;;;;;;;;;5063648;28;20436;-85
2023/07/29 09:05:18;;;;;;;3.85;2.10;;;;;;;;;;5063853;28;20056;-86
2023/07/29 09:07:48;;;;;;;4.43;2.00;;;;;;;;;;5062180;28;20097;-85
2023/07/29 09:10:17;;;;;;;2.90;1.90;;;;;;;;;;5062318;28;20093;-86
2023/07/29 09:12:44;;;;;;;4.25;2.20;;;;;;;;;;5061683;28;20566;-86
2023/07/29 09:15:13;;;;;;;4.57;2.15;;;;;;;;;;5059519;28;20044;-85
2023/07/29 09:17:42;;;;;;;3.53;1.95;;;;;;;;;;5062495;28;20050;-87
2023/07/29 09:20:11;;;;;;;3.30;1.80;;;;;;;;;;5062487;28;20086;-86
2023/07/29 09:22:40;;;;;;;4.03;2.00;;;;;;;;;;5062857;28;20534;-86
2023/07/29 09:25:10;;;;;;;3.45;1.77;;;;;;;;;;5063407;28;20056;-85
2023/07/29 09:27:39;;;;;;;3.67;1.85;;;;;;;;;;5059842;28;20484;-85
2023/07/29 09:30:08;;;;;;;4.53;2.00;;;;;;;;;;5064686;28;20040;-85
2023/07/29 09:32:40;;;;;;;6.40;2.10;;;;;;;;;;5064169;28;20044;-85
2023/07/29 09:35:12;;;;;;;3.63;2.03;;;;;;;;;;5059979;28;20048;-85
2023/07/29 09:37:41;;;;;;;2.97;1.80;;;;;;;;;;5063626;28;20036;-88
2023/07/29 09:40:15;;;;;;;3.47;2.08;;;;;;;;;;5065550;28;20041;-86
2023/07/29 09:42:50;;;;;;;5.93;2.33;;;;;;;;;;5060177;28;20048;-87
2023/07/29 09:45:25;;;;;;;4.78;2.03;;;;;;;;;;5064700;28;20591;-90
2023/07/29 09:47:54;;;;;;;4.18;1.73;;;;;;;;;;5063668;28;20139;-90
2023/07/29 09:50:25;;;;;;;4.03;2.10;;;;;;;;;;5061784;28;20052;-88
2023/07/29 09:52:54;;;;;;;2.88;2.03;;;;;;;;;;5065648;28;20041;-87
2023/07/29 09:55:25;;;;;;;5.13;2.13;;;;;;;;;;5058968;28;20049;-87
2023/07/29 09:58:00;;;;;;;5.57;2.40;;;;;;;;;;5064331;28;20557;-87
2023/07/29 10:00:29;;;;;;;4.82;2.30;;;;;;;;;;5062622;28;20044;-87
2023/07/29 10:02:58;;;;;;;4.85;2.22;;;;;;;;;;5061345;28;20071;-89
2023/07/29 10:05:28;;;;;;;3.55;2.00;;;;;;;;;;5061965;28;20036;-87
2023/07/29 10:07:56;;;;;;;4.25;2.03;;;;;;;;;;5059872;28;20048;-88
2023/07/29 10:10:26;;;;;;;4.15;2.38;;;;;;;;;;5061059;28;20040;-90
2023/07/29 10:12:56;;;;;;;3.10;2.10;;;;;;;;;;5065066;28;20090;-90
2023/07/29 10:15:24;;;;;;;3.42;2.08;;;;;;;;;;5061946;28;20044;-85
2023/07/29 10:17:53;;;;;;;5.30;2.17;;;;;;;;;;5060107;28;20044;-89
2023/07/29 10:20:23;;;;;;;3.10;2.25;;;;;;;;;;5059388;28;20409;-86
2023/07/29 10:22:53;;;;;;;3.25;2.08;;;;;;;;;;5064593;28;20052;-87
2023/07/29 10:25:24;;;;;;;4.00;1.88;;;;;;;;;;5062587;28;20044;-84
2023/07/29 10:27:57;;;;;;;3.60;1.98;;;;;;;;;;5063278;28;20072;-87
2023/07/29 10:30:26;;;;;;;3.38;1.90;;;;;;;;;;5064783;28;20092;-92
2023/07/29 10:32:55;;;;;;;4.15;2.33;;;;;;;;;;5058925;28;20098;-91
2023/07/29 10:35:23;;;;;;;3.40;2.15;;;;;;;;;;5063117;28;20556;-88
2023/07/29 10:37:53;;;;;;;3.40;2.20;;;;;;;;;;5061400;28;20037;-89
2023/07/29 10:40:21;;;;;;;3.63;1.92;;;;;;;;;;5060693;28;20072;-92
2023/07/29 10:43:04;;;;;;;3.70;2.10;;;;;;;;;;5062207;28;20045;-88
2023/07/29 10:45:38;;;;;;;3.53;2.10;;;;;;;;;;5062142;28;20044;-91
2023/07/29 10:48:08;;;;;;;3.47;2.15;;;;;;;;;;5058700;28;20067;-87
2023/07/29 10:50:37;;;;;;;5.03;1.80;;;;;;;;;;5062951;28;20048;-85
2023/07/29 10:53:05;;;;;;;2.83;1.48;;;;;;;;;;5056821;28;20102;-85
2023/07/29 10:55:34;;;;;;;2.80;1.67;;;;;;;;;;5058038;28;20565;-87
2023/07/29 10:58:08;;;;;;;5.18;2.25;;;;;;;;;;5061596;28;20072;-85
2023/07/29 11:00:36;;;;;;;3.10;2.00;;;;;;;;;;5060464;28;20133;-86
2023/07/29 11:03:07;;;;;;;8.23;2.55;;;;;;;;;;5058477;28;20138;-85
2023/07/29 11:05:45;;;;;;;4.55;2.40;;;;;;;;;;5056110;28;20049;-89
2023/07/29 11:08:21;;;;;;;6.57;2.25;;;;;;;;;;5057511;28;20405;-89
2023/07/29 11:10:59;;;;;;;5.97;2.30;;;;;;;;;;5059350;28;20048;-86
2023/07/29 11:13:29;;;;;;;4.95;2.40;;;;;;;;;;5058792;28;20064;-87
2023/07/29 11:15:58;;;;;;;3.78;2.25;;;;;;;;;;5054404;28;20459;-86
2023/07/29 11:18:30;;;;;;;5.28;1.92;;;;;;;;;;5060903;28;20052;-88
2023/07/29 11:20:59;;;;;;;2.63;1.67;;;;;;;;;;5060133;28;20053;-88
2023/07/29 11:23:32;;;;;;;2.22;1.50;;;;;;;;;;5061919;28;20465;-86
2023/07/29 11:26:01;;;;;;;2.22;1.30;;;;;;;;;;5064441;28;20406;-86
2023/07/29 11:28:31;;;;;;;2.15;1.15;;;;;;;;;;5062348;28;20041;-87
2023/07/29 11:31:00;;;;;;;4.25;1.45;;;;;;;;;;5063458;28;20091;-91
2023/07/29 11:33:28;;;;;;;2.25;1.55;;;;;;;;;;5059550;28;20049;-90
2023/07/29 11:35:57;;;;;;;3.40;1.42;;;;;;;;;;5061907;28;20052;-90
2023/07/29 11:38:26;;;;;;;3.72;1.20;;;;;;;;;;5058471;28;20501;-90
2023/07/29 11:40:58;;;;;;;3.35;1.67;;;;;;;;;;5063136;28;20131;-91
2023/07/29 11:43:27;;;;;;;2.63;1.42;;;;;;;;;;5065620;28;20079;-89
2023/07/29 11:45:57;;;;;;;2.78;1.60;;;;;;;;;;5064450;28;20554;-87
2023/07/29 11:48:29;;;;;;;3.47;1.70;;;;;;;;;;5063245;28;20052;-87
2023/07/29 11:50:58;;;;;;;2.92;1.60;;;;;;;;;;5061731;28;20496;-84
2023/07/29 11:53:27;;;;;;;3.75;1.80;;;;;;;;;;5060444;28;20523;-86
2023/07/29 11:55:56;;;;;;;3.30;1.67;;;;;;;;;;5057258;28;20048;-87
2023/07/29 11:58:25;;;;;;;2.92;1.60;;;;;;;;;;5062022;28;20494;-84
2023/07/29 12:00:53;;;;;;;4.70;1.50;;;;;;;;;;5060704;28;20048;-87
2023/07/29 12:03:24;;;;;;;2.90;1.92;;;;;;;;;;5059487;28;20456;-87
2023/07/29 12:05:52;;;;;;;2.15;1.55;;;;;;;;;;5061340;28;20530;-87
2023/07/29 12:08:21;;;;;;;2.55;1.40;;;;;;;;;;5058338;28;20155;-84
2023/07/29 12:10:49;;;;;;;5.03;1.70;;;;;;;;;;5060476;28;20134;-85
2023/07/29 12:13:17;;;;;;;3.22;2.10;;;;;;;;;;5056578;28;20049;-85
2023/07/29 12:15:46;;;;;;;3.35;1.95;;;;;;;;;;5065896;28;20052;-88
2023/07/29 12:18:14;;;;;;;2.28;1.55;;;;;;;;;;5063690;28;20052;-88
2023/07/29 12:20:45;;;;;;;2.50;1.65;;;;;;;;;;5064711;28;20516;-88
2023/07/29 12:23:13;;;;;;;3.42;1.88;;;;;;;;;;5058312;28;20076;-86
2023/07/29 12:25:41;;;;;;;2.70;1.63;;;;;;;;;;5062131;28;20040;-87
2023/07/29 12:28:10;;;;;;;3.50;1.88;;;;;;;;;;5059899;28;20288;-86
2023/07/29 12:30:42;;;;;;;2.75;1.77;;;;;;;;;;5060442;28;20084;-86
2023/07/29 12:33:11;;;;;;;2.75;1.90;;;;;;;;;;5061837;28;20048;-89
2023/07/29 12:35:40;;;;;;;4.20;2.08;;;;;;;;;;5063089;28;20056;-86
2023/07/29 12:38:10;;;;;;;3.13;1.92;;;;;;;;;;5059926;28;20122;-85
2023/07/29 12:40:42;;;;;;;4.53;1.75;;;;;;;;;;5053373;28;20102;-87
2023/07/29 12:43:10;;;;;;;3.22;1.63;;;;;;;;;;5054869;28;20461;-86
2023/07/29 12:45:39;;;;;;;4.53;1.88;;;;;;;;;;5063184;28;20142;-86
2023/07/29 12:48:08;;;;;;;3.25;2.00;;;;;;;;;;5064759;28;20061;-86
2023/07/29 12:50:37;;;;;;;3.33;1.83;;;;;;;;;;5059608;28;20385;-87
2023/07/29 12:53:07;;;;;;;3.92;1.92;;;;;;;;;;5061163;28;20559;-85
2023/07/29 12:55:37;;;;;;;3.65;2.08;;;;;;;;;;5060454;28;20052;-90
2023/07/29 12:58:05;;;;;;;5.00;2.00;;;;;;;;;;5065102;28;20103;-89
2023/07/29 13:00:34;;;;;;;6.03;1.75;;;;;;;;;;5063565;28;20464;-88
2023/07/29 13:03:05;;;;;;;4.47;1.45;;;;;;;;;;5061634;28;20133;-87
2023/07/29 13:05:34;;;;;;;4.00;1.23;;;;;;;;;;5063428;28;20496;-86
2023/07/29 13:08:02;;;;;;;6.50;1.52;;;;;;;;;;5059040;28;20040;-85
2023/07/29 13:10:30;;;;;;;2.58;1.17;;;;;;;;;;5063881;28;20836;-84
2023/07/29 13:13:00;;;;;;;4.10;1.20;;;;;;;;;;5060972;28;20564;-84
2023/07/29 13:15:29;;;;;;;7.20;2.05;;;;;;;;;;5061215;28;20106;-84
2023/07/29 13:17:57;;;;;;;3.35;1.67;;;;;;;;;;5058207;28;20040;-84
2023/07/29 13:20:25;;;;;;;2.50;1.48;;;;;;;;;;5058330;28;20049;-84
2023/07/29 13:22:54;;;;;;;2.58;1.58;;;;;;;;;;5056745;28;20140;-84
2023/07/29 13:25:22;;;;;;;4.20;1.83;;;;;;;;;;5058425;28;20056;-84
2023/07/29 13:27:51;;;;;;;4.28;1.70;;;;;;;;;;5065485;28;20056;-85
2023/07/29 13:30:20;;;;;;;3.75;1.85;;;;;;;;;;5060296;28;20080;-84
2023/07/29 13:32:49;;;;;;;4.32;1.85;;;;;;;;;;5062768;28;20466;-85
2023/07/29 13:35:17;;;;;;;3.38;2.42;;;;;;;;;;5057943;28;20067;-85
2023/07/29 13:37:46;;;;;;;4.90;2.25;;;;;;;;;;5058210;28;20560;-85
2023/07/29 13:40:14;;;;;;;4.18;2.03;;;;;;;;;;5060265;28;20052;-85
2023/07/29 13:42:42;;;;;;;5.30;1.80;;;;;;;;;;5062341;28;20375;-85
2023/07/29 13:45:11;;;;;;;4.75;2.15;;;;;;;;;;5058337;28;20711;-85
2023/07/29 13:47:41;;;;;;;2.83;1.83;;;;;;;;;;5058950;28;20135;-85
2023/07/29 13:50:09;;;;;;;4.85;2.25;;;;;;;;;;5057651;28;20125;-85
2023/07/29 13:52:38;;;;;;;6.95;2.47;;;;;;;;;;5056749;28;20077;-85
2023/07/29 13:55:07;;;;;;;6.25;2.28;;;;;;;;;;5059196;28;20645;-85
2023/07/29 13:57:35;;;;;;;6.55;2.42;;;;;;;;;;5061600;28;20052;-85
2023/07/29 14:00:04;;;;;;;5.05;2.25;;;;;;;;;;5059655;28;20052;-85
2023/07/29 14:02:33;;;;;;;4.75;2.30;;;;;;;;;;5061376;28;20052;-85
2023/07/29 14:05:02;;;;;;;5.50;2.70;;;;;;;;;;5056659;28;20531;-85
2023/07/29 14:07:31;;;;;;;3.53;2.17;;;;;;;;;;5062513;28;20052;-85
2023/07/29 14:09:59;;;;;;;3.20;1.92;;;;;;;;;;5059565;28;20127;-85
2023/07/29 14:12:29;;;;;;;5.18;2.47;;;;;;;;;;5059647;28;20332;-84
2023/07/29 14:14:58;;;;;;;6.47;2.47;;;;;;;;;;5062827;28;20425;-84
2023/07/29 14:17:26;;;;;;;4.32;2.50;;;;;;;;;;5056129;28;21362;-84
2023/07/29 14:19:55;;;;;;;4.65;2.38;;;;;;;;;;5060833;28;20040;-85
2023/07/29 14:22:25;;;;;;;5.20;2.67;;;;;;;;;;5061212;28;20041;-84
2023/07/29 14:24:53;;;;;;;4.55;2.25;;;;;;;;;;5057826;28;20530;-84
2023/07/29 14:27:21;;;;;;;5.45;2.47;;;;;;;;;;5061264;28;20555;-84
2023/07/29 14:29:50;;;;;;;4.22;2.28;;;;;;;;;;5062198;28;20447;-87
2023/07/29 14:32:18;;;;;;;8.20;3.00;;;;;;;;;;5058600;28;20055;-84
2023/07/29 14:34:50;;;;;;;4.78;2.50;;;;;;;;;;5057541;28;20072;-84
2023/07/29 14:37:19;;;;;;;4.40;2.13;;;;;;;;;;5061400;28;20478;-84
2023/07/29 14:39:48;;;;;;;5.07;2.42;;;;;;;;;;5058952;28;20049;-84
2023/07/29 14:42:17;;;;;;;3.70;2.10;;;;;;;;;;5061775;28;20447;-84
2023/07/29 14:44:45;;;;;;;3.28;2.15;;;;;;;;;;5062421;28;20056;-87
2023/07/29 14:47:14;;;;;;;3.15;2.30;;;;;;;;;;5057580;28;20512;-86
2023/07/29 14:49:42;;;;;;;2.60;2.00;;;;;;;;;;5055588;28;20556;-86
2023/07/29 14:52:10;;;;;;;8.70;2.35;;;;;;;;;;5058808;28;20097;-86
2023/07/29 14:54:39;;;;;;;5.60;2.20;;;;;;;;;;5060716;28;20060;-86